sensor_id;sensor_type;location;lat;lon;timestamp;P1;durP1;ratioP1;P2;durP2;ratioP2
41609;SDS011;27312;42.662;23.302;2022-07-10T00:01:31;15.63;;;12.32;;
41609;SDS011;27312;42.662;23.302;2022-07-10T00:03:57;18.90;;;12.98;;
41609;SDS011;27312;42.662;23.302;2022-07-10T00:06:23;17.08;;;12.98;;
41609;SDS011;27312;42.662;23.302;2022-07-10T00:08:49;14.57;;;11.63;;
41609;SDS011;27312;42.662;23.302;2022-07-10T00:11:16;17.73;;;12.80;;
41609;SDS011;27312;42.662;23.302;2022-07-10T00:13:42;16.23;;;12.85;;
41609;SDS011;27312;42.662;23.302;2022-07-10T00:16:08;17.08;;;13.77;;
41609;SDS011;27312;42.662;23.302;2022-07-10T00:18:34;16.67;;;12.40;;
41609;SDS011;27312;42.662;23.302;2022-07-10T00:21:00;17.02;;;12.43;;
41609;SDS011;27312;42.662;23.302;2022-07-10T00:23:26;16.95;;;12.82;;
41609;SDS011;27312;42.662;23.302;2022-07-10T00:25:52;17.95;;;13.38;;
41609;SDS011;27312;42.662;23.302;2022-07-10T00:28:19;16.10;;;13.05;;
41609;SDS011;27312;42.662;23.302;2022-07-10T00:30:45;19.17;;;13.85;;
41609;SDS011;27312;42.662;23.302;2022-07-10T00:33:11;18.15;;;13.35;;
41609;SDS011;27312;42.662;23.302;2022-07-10T00:35:37;17.05;;;12.85;;
41609;SDS011;27312;42.662;23.302;2022-07-10T00:38:03;17.17;;;12.48;;
41609;SDS011;27312;42.662;23.302;2022-07-10T00:40:29;19.73;;;13.95;;
41609;SDS011;27312;42.662;23.302;2022-07-10T00:42:55;17.75;;;13.73;;
41609;SDS011;27312;42.662;23.302;2022-07-10T00:45:21;21.42;;;13.52;;
41609;SDS011;27312;42.662;23.302;2022-07-10T00:47:47;20.33;;;13.88;;
41609;SDS011;27312;42.662;23.302;2022-07-10T00:50:13;23.13;;;15.15;;
41609;SDS011;27312;42.662;23.302;2022-07-10T00:52:39;18.42;;;13.75;;
41609;SDS011;27312;42.662;23.302;2022-07-10T00:55:06;19.85;;;13.27;;
41609;SDS011;27312;42.662;23.302;2022-07-10T00:57:33;16.92;;;12.73;;
41609;SDS011;27312;42.662;23.302;2022-07-10T01:00:01;18.15;;;13.25;;
41609;SDS011;27312;42.662;23.302;2022-07-10T01:02:27;18.52;;;12.93;;
41609;SDS011;27312;42.662;23.302;2022-07-10T01:04:53;17.10;;;12.50;;
41609;SDS011;27312;42.662;23.302;2022-07-10T01:07:19;17.25;;;13.32;;
41609;SDS011;27312;42.662;23.302;2022-07-10T01:09:45;19.42;;;13.20;;
41609;SDS011;27312;42.662;23.302;2022-07-10T01:12:11;18.17;;;12.85;;
41609;SDS011;27312;42.662;23.302;2022-07-10T01:14:37;15.48;;;12.57;;
41609;SDS011;27312;42.662;23.302;2022-07-10T01:17:05;18.80;;;12.57;;
41609;SDS011;27312;42.662;23.302;2022-07-10T01:19:32;17.02;;;11.98;;
41609;SDS011;27312;42.662;23.302;2022-07-10T01:21:58;16.38;;;12.23;;
41609;SDS011;27312;42.662;23.302;2022-07-10T01:24:24;17.27;;;12.60;;
41609;SDS011;27312;42.662;23.302;2022-07-10T01:26:50;17.55;;;13.43;;
41609;SDS011;27312;42.662;23.302;2022-07-10T01:29:16;17.33;;;12.27;;
41609;SDS011;27312;42.662;23.302;2022-07-10T01:31:42;15.98;;;11.75;;
41609;SDS011;27312;42.662;23.302;2022-07-10T01:34:08;15.35;;;12.13;;
41609;SDS011;27312;42.662;23.302;2022-07-10T01:36:35;16.73;;;11.80;;
41609;SDS011;27312;42.662;23.302;2022-07-10T01:39:02;15.90;;;12.43;;
41609;SDS011;27312;42.662;23.302;2022-07-10T01:41:28;17.70;;;12.02;;
41609;SDS011;27312;42.662;23.302;2022-07-10T01:43:54;15.02;;;11.75;;
41609;SDS011;27312;42.662;23.302;2022-07-10T01:46:20;14.93;;;11.35;;
41609;SDS011;27312;42.662;23.302;2022-07-10T01:48:46;13.07;;;10.63;;
41609;SDS011;27312;42.662;23.302;2022-07-10T01:51:12;16.05;;;11.38;;
41609;SDS011;27312;42.662;23.302;2022-07-10T01:53:39;14.43;;;11.57;;
41609;SDS011;27312;42.662;23.302;2022-07-10T01:56:06;14.25;;;11.05;;
41609;SDS011;27312;42.662;23.302;2022-07-10T01:58:33;16.05;;;11.75;;
41609;SDS011;27312;42.662;23.302;2022-07-10T02:00:59;14.85;;;10.45;;
41609;SDS011;27312;42.662;23.302;2022-07-10T02:03:25;13.63;;;11.13;;
41609;SDS011;27312;42.662;23.302;2022-07-10T02:06:10;13.48;;;10.57;;
41609;SDS011;27312;42.662;23.302;2022-07-10T02:08:36;13.43;;;10.50;;
41609;SDS011;27312;42.662;23.302;2022-07-10T02:11:02;16.90;;;11.90;;
41609;SDS011;27312;42.662;23.302;2022-07-10T02:13:28;15.88;;;11.15;;
41609;SDS011;27312;42.662;23.302;2022-07-10T02:15:54;13.57;;;10.65;;
41609;SDS011;27312;42.662;23.302;2022-07-10T02:18:21;15.43;;;11.23;;
41609;SDS011;27312;42.662;23.302;2022-07-10T02:20:47;13.60;;;11.35;;
41609;SDS011;27312;42.662;23.302;2022-07-10T02:23:13;14.65;;;10.32;;
41609;SDS011;27312;42.662;23.302;2022-07-10T02:25:39;14.27;;;10.82;;
41609;SDS011;27312;42.662;23.302;2022-07-10T02:28:05;14.55;;;11.35;;
41609;SDS011;27312;42.662;23.302;2022-07-10T02:30:31;14.98;;;11.90;;
41609;SDS011;27312;42.662;23.302;2022-07-10T02:32:57;16.50;;;12.25;;
41609;SDS011;27312;42.662;23.302;2022-07-10T02:35:23;16.13;;;11.85;;
41609;SDS011;27312;42.662;23.302;2022-07-10T02:37:49;15.95;;;11.77;;
41609;SDS011;27312;42.662;23.302;2022-07-10T02:40:16;15.27;;;11.13;;
41609;SDS011;27312;42.662;23.302;2022-07-10T02:42:42;15.65;;;12.27;;
41609;SDS011;27312;42.662;23.302;2022-07-10T02:45:08;15.73;;;12.20;;
41609;SDS011;27312;42.662;23.302;2022-07-10T02:47:34;16.65;;;12.00;;
41609;SDS011;27312;42.662;23.302;2022-07-10T02:50:00;16.02;;;12.23;;
41609;SDS011;27312;42.662;23.302;2022-07-10T02:52:26;15.20;;;11.73;;
41609;SDS011;27312;42.662;23.302;2022-07-10T02:54:55;15.18;;;11.43;;
41609;SDS011;27312;42.662;23.302;2022-07-10T02:57:21;14.02;;;10.50;;
41609;SDS011;27312;42.662;23.302;2022-07-10T02:59:47;15.40;;;12.00;;
41609;SDS011;27312;42.662;23.302;2022-07-10T03:02:13;15.70;;;11.32;;
41609;SDS011;27312;42.662;23.302;2022-07-10T03:04:39;16.67;;;12.65;;
41609;SDS011;27312;42.662;23.302;2022-07-10T03:07:05;17.23;;;10.80;;
41609;SDS011;27312;42.662;23.302;2022-07-10T03:09:32;13.55;;;9.80;;
41609;SDS011;27312;42.662;23.302;2022-07-10T03:11:58;12.55;;;9.93;;
41609;SDS011;27312;42.662;23.302;2022-07-10T03:14:25;14.48;;;10.50;;
41609;SDS011;27312;42.662;23.302;2022-07-10T03:16:51;15.25;;;10.75;;
41609;SDS011;27312;42.662;23.302;2022-07-10T03:19:17;12.25;;;10.23;;
41609;SDS011;27312;42.662;23.302;2022-07-10T03:21:43;14.10;;;10.48;;
41609;SDS011;27312;42.662;23.302;2022-07-10T03:24:10;12.70;;;9.75;;
41609;SDS011;27312;42.662;23.302;2022-07-10T03:26:36;13.55;;;10.38;;
41609;SDS011;27312;42.662;23.302;2022-07-10T03:29:02;12.85;;;9.95;;
41609;SDS011;27312;42.662;23.302;2022-07-10T03:31:29;14.60;;;10.32;;
41609;SDS011;27312;42.662;23.302;2022-07-10T03:33:55;17.00;;;11.07;;
41609;SDS011;27312;42.662;23.302;2022-07-10T03:36:21;12.77;;;10.48;;
41609;SDS011;27312;42.662;23.302;2022-07-10T03:38:47;13.75;;;10.70;;
41609;SDS011;27312;42.662;23.302;2022-07-10T03:41:16;13.15;;;10.25;;
41609;SDS011;27312;42.662;23.302;2022-07-10T03:43:42;15.13;;;10.80;;
41609;SDS011;27312;42.662;23.302;2022-07-10T03:46:08;14.52;;;9.50;;
41609;SDS011;27312;42.662;23.302;2022-07-10T03:48:34;14.63;;;9.55;;
41609;SDS011;27312;42.662;23.302;2022-07-10T03:51:01;13.32;;;9.68;;
41609;SDS011;27312;42.662;23.302;2022-07-10T03:53:27;11.82;;;9.25;;
41609;SDS011;27312;42.662;23.302;2022-07-10T03:55:53;13.27;;;11.07;;
41609;SDS011;27312;42.662;23.302;2022-07-10T03:58:20;12.95;;;10.32;;
41609;SDS011;27312;42.662;23.302;2022-07-10T04:00:46;11.85;;;8.70;;
41609;SDS011;27312;42.662;23.302;2022-07-10T04:03:12;11.23;;;9.20;;
41609;SDS011;27312;42.662;23.302;2022-07-10T04:05:38;11.20;;;8.57;;
41609;SDS011;27312;42.662;23.302;2022-07-10T04:08:05;9.93;;;8.52;;
41609;SDS011;27312;42.662;23.302;2022-07-10T04:10:31;10.35;;;7.82;;
41609;SDS011;27312;42.662;23.302;2022-07-10T04:12:58;8.00;;;6.72;;
41609;SDS011;27312;42.662;23.302;2022-07-10T04:15:24;8.25;;;6.78;;
41609;SDS011;27312;42.662;23.302;2022-07-10T04:17:50;9.38;;;6.60;;
41609;SDS011;27312;42.662;23.302;2022-07-10T04:20:17;8.85;;;7.10;;
41609;SDS011;27312;42.662;23.302;2022-07-10T04:22:43;8.38;;;6.30;;
41609;SDS011;27312;42.662;23.302;2022-07-10T04:25:09;8.50;;;6.20;;
41609;SDS011;27312;42.662;23.302;2022-07-10T04:27:35;7.15;;;6.00;;
41609;SDS011;27312;42.662;23.302;2022-07-10T04:30:02;8.05;;;6.35;;
41609;SDS011;27312;42.662;23.302;2022-07-10T04:32:28;7.53;;;5.68;;
41609;SDS011;27312;42.662;23.302;2022-07-10T04:34:54;6.35;;;5.00;;
41609;SDS011;27312;42.662;23.302;2022-07-10T04:37:21;6.55;;;4.85;;
41609;SDS011;27312;42.662;23.302;2022-07-10T04:39:47;5.43;;;4.93;;
41609;SDS011;27312;42.662;23.302;2022-07-10T04:42:13;6.53;;;4.95;;
41609;SDS011;27312;42.662;23.302;2022-07-10T04:44:39;9.38;;;4.93;;
41609;SDS011;27312;42.662;23.302;2022-07-10T04:47:05;7.35;;;4.78;;
41609;SDS011;27312;42.662;23.302;2022-07-10T04:49:31;5.65;;;4.28;;
41609;SDS011;27312;42.662;23.302;2022-07-10T04:51:58;4.90;;;4.07;;
41609;SDS011;27312;42.662;23.302;2022-07-10T04:54:24;7.18;;;4.70;;
41609;SDS011;27312;42.662;23.302;2022-07-10T04:56:50;4.93;;;4.45;;
41609;SDS011;27312;42.662;23.302;2022-07-10T04:59:16;5.43;;;4.40;;
41609;SDS011;27312;42.662;23.302;2022-07-10T05:01:42;4.75;;;4.28;;
41609;SDS011;27312;42.662;23.302;2022-07-10T05:04:08;4.97;;;4.25;;
41609;SDS011;27312;42.662;23.302;2022-07-10T05:06:34;4.38;;;3.97;;
41609;SDS011;27312;42.662;23.302;2022-07-10T05:09:01;5.10;;;4.43;;
41609;SDS011;27312;42.662;23.302;2022-07-10T05:11:27;4.47;;;4.05;;
41609;SDS011;27312;42.662;23.302;2022-07-10T05:13:53;5.50;;;3.70;;
41609;SDS011;27312;42.662;23.302;2022-07-10T05:16:19;5.03;;;4.50;;
41609;SDS011;27312;42.662;23.302;2022-07-10T05:18:45;4.10;;;3.70;;
41609;SDS011;27312;42.662;23.302;2022-07-10T05:21:11;4.35;;;3.95;;
41609;SDS011;27312;42.662;23.302;2022-07-10T05:23:37;4.18;;;3.78;;
41609;SDS011;27312;42.662;23.302;2022-07-10T05:26:04;6.43;;;3.78;;
41609;SDS011;27312;42.662;23.302;2022-07-10T05:28:31;4.60;;;4.00;;
41609;SDS011;27312;42.662;23.302;2022-07-10T05:30:57;4.05;;;3.63;;
41609;SDS011;27312;42.662;23.302;2022-07-10T05:33:23;4.20;;;3.60;;
41609;SDS011;27312;42.662;23.302;2022-07-10T05:35:49;4.50;;;3.60;;
41609;SDS011;27312;42.662;23.302;2022-07-10T05:38:15;5.28;;;3.38;;
41609;SDS011;27312;42.662;23.302;2022-07-10T05:40:42;4.47;;;3.75;;
41609;SDS011;27312;42.662;23.302;2022-07-10T05:43:08;5.13;;;4.05;;
41609;SDS011;27312;42.662;23.302;2022-07-10T05:45:36;4.10;;;3.65;;
41609;SDS011;27312;42.662;23.302;2022-07-10T05:48:02;4.18;;;3.78;;
41609;SDS011;27312;42.662;23.302;2022-07-10T05:50:28;5.10;;;3.80;;
41609;SDS011;27312;42.662;23.302;2022-07-10T05:52:55;4.07;;;3.65;;
41609;SDS011;27312;42.662;23.302;2022-07-10T05:55:21;5.85;;;3.60;;
41609;SDS011;27312;42.662;23.302;2022-07-10T05:57:48;5.97;;;3.40;;
41609;SDS011;27312;42.662;23.302;2022-07-10T06:00:15;4.18;;;3.58;;
41609;SDS011;27312;42.662;23.302;2022-07-10T06:02:41;4.25;;;3.80;;
41609;SDS011;27312;42.662;23.302;2022-07-10T06:05:07;4.85;;;4.18;;
41609;SDS011;27312;42.662;23.302;2022-07-10T06:07:34;4.18;;;3.78;;
41609;SDS011;27312;42.662;23.302;2022-07-10T06:10:00;4.88;;;4.30;;
41609;SDS011;27312;42.662;23.302;2022-07-10T06:12:27;4.63;;;3.65;;
41609;SDS011;27312;42.662;23.302;2022-07-10T06:14:53;4.13;;;3.00;;
41609;SDS011;27312;42.662;23.302;2022-07-10T06:17:19;4.32;;;2.97;;
41609;SDS011;27312;42.662;23.302;2022-07-10T06:19:45;5.55;;;3.45;;
41609;SDS011;27312;42.662;23.302;2022-07-10T06:22:11;3.67;;;3.10;;
41609;SDS011;27312;42.662;23.302;2022-07-10T06:24:55;3.92;;;2.78;;
41609;SDS011;27312;42.662;23.302;2022-07-10T06:27:21;3.15;;;2.55;;
41609;SDS011;27312;42.662;23.302;2022-07-10T06:29:48;3.85;;;2.92;;
41609;SDS011;27312;42.662;23.302;2022-07-10T06:32:14;5.07;;;2.70;;
41609;SDS011;27312;42.662;23.302;2022-07-10T06:34:40;3.13;;;2.83;;
41609;SDS011;27312;42.662;23.302;2022-07-10T06:37:06;3.00;;;2.40;;
41609;SDS011;27312;42.662;23.302;2022-07-10T06:39:33;4.10;;;2.65;;
41609;SDS011;27312;42.662;23.302;2022-07-10T06:42:02;3.55;;;2.65;;
41609;SDS011;27312;42.662;23.302;2022-07-10T06:44:28;3.67;;;2.80;;
41609;SDS011;27312;42.662;23.302;2022-07-10T06:46:55;5.78;;;3.05;;
41609;SDS011;27312;42.662;23.302;2022-07-10T06:49:40;2.90;;;2.70;;
41609;SDS011;27312;42.662;23.302;2022-07-10T06:52:06;3.30;;;3.00;;
41609;SDS011;27312;42.662;23.302;2022-07-10T06:54:32;3.65;;;2.85;;
41609;SDS011;27312;42.662;23.302;2022-07-10T06:56:59;2.70;;;2.45;;
41609;SDS011;27312;42.662;23.302;2022-07-10T06:59:25;3.10;;;2.63;;
41609;SDS011;27312;42.662;23.302;2022-07-10T07:01:52;3.43;;;2.10;;
41609;SDS011;27312;42.662;23.302;2022-07-10T07:04:18;5.18;;;2.67;;
41609;SDS011;27312;42.662;23.302;2022-07-10T07:06:44;2.40;;;2.20;;
41609;SDS011;27312;42.662;23.302;2022-07-10T07:09:10;2.63;;;2.42;;
41609;SDS011;27312;42.662;23.302;2022-07-10T07:11:36;4.15;;;3.45;;
41609;SDS011;27312;42.662;23.302;2022-07-10T07:14:03;4.53;;;2.75;;
41609;SDS011;27312;42.662;23.302;2022-07-10T07:16:29;2.92;;;2.67;;
41609;SDS011;27312;42.662;23.302;2022-07-10T07:19:07;2.70;;;2.50;;
41609;SDS011;27312;42.662;23.302;2022-07-10T07:24:19;3.25;;;2.35;;
41609;SDS011;27312;42.662;23.302;2022-07-10T07:26:46;5.65;;;2.60;;
41609;SDS011;27312;42.662;23.302;2022-07-10T07:29:16;2.58;;;2.28;;
41609;SDS011;27312;42.662;23.302;2022-07-10T07:31:42;2.60;;;2.40;;
41609;SDS011;27312;42.662;23.302;2022-07-10T07:34:08;4.07;;;2.55;;
41609;SDS011;27312;42.662;23.302;2022-07-10T07:36:36;4.10;;;2.50;;
41609;SDS011;27312;42.662;23.302;2022-07-10T07:39:03;2.78;;;2.55;;
41609;SDS011;27312;42.662;23.302;2022-07-10T07:41:29;3.10;;;2.20;;
41609;SDS011;27312;42.662;23.302;2022-07-10T07:43:55;3.10;;;2.33;;
41609;SDS011;27312;42.662;23.302;2022-07-10T07:46:21;2.75;;;2.53;;
41609;SDS011;27312;42.662;23.302;2022-07-10T07:48:49;3.20;;;2.30;;
41609;SDS011;27312;42.662;23.302;2022-07-10T07:51:15;2.67;;;2.13;;
41609;SDS011;27312;42.662;23.302;2022-07-10T07:53:41;3.30;;;2.30;;
41609;SDS011;27312;42.662;23.302;2022-07-10T07:56:07;3.40;;;2.28;;
41609;SDS011;27312;42.662;23.302;2022-07-10T07:58:33;2.50;;;2.25;;
41609;SDS011;27312;42.662;23.302;2022-07-10T08:00:59;3.38;;;2.30;;
41609;SDS011;27312;42.662;23.302;2022-07-10T08:03:25;3.67;;;2.20;;
41609;SDS011;27312;42.662;23.302;2022-07-10T08:05:51;3.13;;;1.83;;
41609;SDS011;27312;42.662;23.302;2022-07-10T08:08:17;3.20;;;2.20;;
41609;SDS011;27312;42.662;23.302;2022-07-10T08:10:43;2.55;;;2.10;;
41609;SDS011;27312;42.662;23.302;2022-07-10T08:13:09;2.20;;;1.85;;
41609;SDS011;27312;42.662;23.302;2022-07-10T08:15:36;2.17;;;1.90;;
41609;SDS011;27312;42.662;23.302;2022-07-10T08:18:02;2.08;;;1.67;;
41609;SDS011;27312;42.662;23.302;2022-07-10T08:20:29;4.23;;;2.10;;
41609;SDS011;27312;42.662;23.302;2022-07-10T08:22:56;4.00;;;1.70;;
41609;SDS011;27312;42.662;23.302;2022-07-10T08:25:22;2.17;;;1.65;;
41609;SDS011;27312;42.662;23.302;2022-07-10T08:27:49;1.70;;;1.60;;
41609;SDS011;27312;42.662;23.302;2022-07-10T08:30:15;2.77;;;2.13;;
41609;SDS011;27312;42.662;23.302;2022-07-10T08:32:41;2.88;;;1.70;;
41609;SDS011;27312;42.662;23.302;2022-07-10T08:35:08;1.85;;;1.60;;
41609;SDS011;27312;42.662;23.302;2022-07-10T08:37:41;2.13;;;1.67;;
41609;SDS011;27312;42.662;23.302;2022-07-10T08:40:08;1.98;;;1.80;;
41609;SDS011;27312;42.662;23.302;2022-07-10T08:42:34;2.30;;;1.95;;
41609;SDS011;27312;42.662;23.302;2022-07-10T08:45:00;2.15;;;1.92;;
41609;SDS011;27312;42.662;23.302;2022-07-10T08:47:26;2.13;;;1.92;;
41609;SDS011;27312;42.662;23.302;2022-07-10T08:49:56;2.65;;;2.33;;
41609;SDS011;27312;42.662;23.302;2022-07-10T08:52:38;4.40;;;2.35;;
41609;SDS011;27312;42.662;23.302;2022-07-10T08:55:11;4.68;;;2.63;;
41609;SDS011;27312;42.662;23.302;2022-07-10T08:57:38;4.43;;;2.30;;
41609;SDS011;27312;42.662;23.302;2022-07-10T09:00:05;3.80;;;2.55;;
41609;SDS011;27312;42.662;23.302;2022-07-10T09:02:31;3.28;;;2.20;;
41609;SDS011;27312;42.662;23.302;2022-07-10T09:04:57;2.42;;;2.22;;
41609;SDS011;27312;42.662;23.302;2022-07-10T09:07:24;4.40;;;2.50;;
41609;SDS011;27312;42.662;23.302;2022-07-10T09:09:51;4.07;;;2.50;;
41609;SDS011;27312;42.662;23.302;2022-07-10T09:12:18;3.05;;;2.28;;
41609;SDS011;27312;42.662;23.302;2022-07-10T09:14:44;2.42;;;2.22;;
41609;SDS011;27312;42.662;23.302;2022-07-10T09:17:10;2.35;;;2.15;;
41609;SDS011;27312;42.662;23.302;2022-07-10T09:19:37;5.00;;;2.67;;
41609;SDS011;27312;42.662;23.302;2022-07-10T09:22:08;3.10;;;2.20;;
41609;SDS011;27312;42.662;23.302;2022-07-10T09:24:38;2.47;;;2.28;;
41609;SDS011;27312;42.662;23.302;2022-07-10T09:27:05;3.67;;;2.65;;
41609;SDS011;27312;42.662;23.302;2022-07-10T09:29:31;3.92;;;2.78;;
41609;SDS011;27312;42.662;23.302;2022-07-10T09:34:40;3.78;;;2.38;;
41609;SDS011;27312;42.662;23.302;2022-07-10T09:40:06;3.17;;;2.17;;
41609;SDS011;27312;42.662;23.302;2022-07-10T09:42:31;3.08;;;2.35;;
41609;SDS011;27312;42.662;23.302;2022-07-10T09:45:12;4.70;;;2.33;;
41609;SDS011;27312;42.662;23.302;2022-07-10T09:47:42;3.03;;;2.10;;
41609;SDS011;27312;42.662;23.302;2022-07-10T09:50:22;3.40;;;2.30;;
41609;SDS011;27312;42.662;23.302;2022-07-10T09:52:49;2.55;;;2.00;;
41609;SDS011;27312;42.662;23.302;2022-07-10T09:55:17;3.33;;;2.20;;
41609;SDS011;27312;42.662;23.302;2022-07-10T09:57:44;3.15;;;2.72;;
41609;SDS011;27312;42.662;23.302;2022-07-10T10:00:11;2.78;;;2.53;;
41609;SDS011;27312;42.662;23.302;2022-07-10T10:02:37;1.90;;;1.70;;
41609;SDS011;27312;42.662;23.302;2022-07-10T10:05:04;2.58;;;1.92;;
41609;SDS011;27312;42.662;23.302;2022-07-10T10:07:30;2.95;;;2.30;;
41609;SDS011;27312;42.662;23.302;2022-07-10T10:09:59;2.72;;;2.20;;
41609;SDS011;27312;42.662;23.302;2022-07-10T10:12:29;3.05;;;2.30;;
41609;SDS011;27312;42.662;23.302;2022-07-10T10:14:56;2.47;;;2.25;;
41609;SDS011;27312;42.662;23.302;2022-07-10T10:17:24;3.58;;;2.28;;
41609;SDS011;27312;42.662;23.302;2022-07-10T10:19:51;1.85;;;1.75;;
41609;SDS011;27312;42.662;23.302;2022-07-10T10:22:40;2.08;;;1.85;;
41609;SDS011;27312;42.662;23.302;2022-07-10T10:25:06;1.88;;;1.70;;
41609;SDS011;27312;42.662;23.302;2022-07-10T10:27:33;1.98;;;1.70;;
41609;SDS011;27312;42.662;23.302;2022-07-10T10:29:59;3.33;;;1.85;;
41609;SDS011;27312;42.662;23.302;2022-07-10T10:32:26;2.33;;;1.73;;
41609;SDS011;27312;42.662;23.302;2022-07-10T10:34:53;2.20;;;2.00;;
41609;SDS011;27312;42.662;23.302;2022-07-10T10:39:56;2.72;;;2.42;;
41609;SDS011;27312;42.662;23.302;2022-07-10T10:42:41;2.25;;;2.00;;
41609;SDS011;27312;42.662;23.302;2022-07-10T10:47:57;3.28;;;2.30;;
41609;SDS011;27312;42.662;23.302;2022-07-10T10:53:02;4.60;;;2.70;;
41609;SDS011;27312;42.662;23.302;2022-07-10T10:55:28;3.60;;;2.70;;
41609;SDS011;27312;42.662;23.302;2022-07-10T10:57:54;3.78;;;2.78;;
41609;SDS011;27312;42.662;23.302;2022-07-10T11:00:37;3.42;;;2.58;;
41609;SDS011;27312;42.662;23.302;2022-07-10T11:03:11;3.63;;;2.92;;
41609;SDS011;27312;42.662;23.302;2022-07-10T11:13:02;3.20;;;2.85;;
41609;SDS011;27312;42.662;23.302;2022-07-10T11:15:29;2.58;;;2.22;;
41609;SDS011;27312;42.662;23.302;2022-07-10T11:17:57;3.50;;;2.53;;
41609;SDS011;27312;42.662;23.302;2022-07-10T11:20:23;2.97;;;2.67;;
41609;SDS011;27312;42.662;23.302;2022-07-10T11:22:58;4.13;;;2.40;;
41609;SDS011;27312;42.662;23.302;2022-07-10T11:25:31;4.20;;;3.00;;
41609;SDS011;27312;42.662;23.302;2022-07-10T11:33:14;3.92;;;3.10;;
41609;SDS011;27312;42.662;23.302;2022-07-10T11:35:40;2.92;;;2.60;;
41609;SDS011;27312;42.662;23.302;2022-07-10T11:38:06;3.58;;;2.63;;
41609;SDS011;27312;42.662;23.302;2022-07-10T11:40:36;5.28;;;2.85;;
41609;SDS011;27312;42.662;23.302;2022-07-10T11:43:02;4.60;;;3.00;;
41609;SDS011;27312;42.662;23.302;2022-07-10T11:45:32;4.95;;;2.72;;
41609;SDS011;27312;42.662;23.302;2022-07-10T11:48:00;3.00;;;2.58;;
41609;SDS011;27312;42.662;23.302;2022-07-10T11:50:26;2.80;;;2.40;;
41609;SDS011;27312;42.662;23.302;2022-07-10T11:52:53;3.53;;;2.25;;
41609;SDS011;27312;42.662;23.302;2022-07-10T11:55:20;3.85;;;2.90;;
41609;SDS011;27312;42.662;23.302;2022-07-10T11:57:47;3.30;;;2.55;;
41609;SDS011;27312;42.662;23.302;2022-07-10T12:00:27;2.67;;;2.13;;
41609;SDS011;27312;42.662;23.302;2022-07-10T12:02:53;3.00;;;2.70;;
41609;SDS011;27312;42.662;23.302;2022-07-10T12:05:37;2.55;;;2.35;;
41609;SDS011;27312;42.662;23.302;2022-07-10T12:08:05;3.83;;;2.60;;
41609;SDS011;27312;42.662;23.302;2022-07-10T12:10:32;5.15;;;3.05;;
41609;SDS011;27312;42.662;23.302;2022-07-10T12:13:05;3.95;;;2.45;;
41609;SDS011;27312;42.662;23.302;2022-07-10T12:15:41;2.80;;;2.60;;
41609;SDS011;27312;42.662;23.302;2022-07-10T12:18:08;2.83;;;2.38;;
41609;SDS011;27312;42.662;23.302;2022-07-10T12:20:35;5.88;;;2.45;;
41609;SDS011;27312;42.662;23.302;2022-07-10T12:23:02;2.63;;;2.25;;
41609;SDS011;27312;42.662;23.302;2022-07-10T12:25:29;3.72;;;2.05;;
41609;SDS011;27312;42.662;23.302;2022-07-10T12:27:56;2.20;;;2.00;;
41609;SDS011;27312;42.662;23.302;2022-07-10T12:30:23;2.25;;;2.05;;
41609;SDS011;27312;42.662;23.302;2022-07-10T12:32:49;4.43;;;2.08;;
41609;SDS011;27312;42.662;23.302;2022-07-10T12:35:15;2.25;;;2.05;;
41609;SDS011;27312;42.662;23.302;2022-07-10T12:37:48;2.88;;;2.33;;
41609;SDS011;27312;42.662;23.302;2022-07-10T12:40:31;10.23;;;7.50;;
41609;SDS011;27312;42.662;23.302;2022-07-10T12:43:03;5.53;;;3.90;;
41609;SDS011;27312;42.662;23.302;2022-07-10T12:45:31;3.33;;;2.58;;
41609;SDS011;27312;42.662;23.302;2022-07-10T12:47:57;2.25;;;2.05;;
41609;SDS011;27312;42.662;23.302;2022-07-10T12:50:23;2.80;;;2.35;;
41609;SDS011;27312;42.662;23.302;2022-07-10T12:52:50;2.55;;;2.33;;
41609;SDS011;27312;42.662;23.302;2022-07-10T12:55:36;2.10;;;1.90;;
41609;SDS011;27312;42.662;23.302;2022-07-10T12:58:09;3.63;;;2.10;;
41609;SDS011;27312;42.662;23.302;2022-07-10T13:00:43;2.63;;;1.90;;
41609;SDS011;27312;42.662;23.302;2022-07-10T13:03:10;2.55;;;1.92;;
41609;SDS011;27312;42.662;23.302;2022-07-10T13:05:38;2.17;;;1.67;;
41609;SDS011;27312;42.662;23.302;2022-07-10T13:08:09;2.83;;;2.20;;
41609;SDS011;27312;42.662;23.302;2022-07-10T13:10:37;2.75;;;1.67;;
41609;SDS011;27312;42.662;23.302;2022-07-10T13:13:04;2.17;;;1.58;;
41609;SDS011;27312;42.662;23.302;2022-07-10T13:15:31;1.90;;;1.70;;
41609;SDS011;27312;42.662;23.302;2022-07-10T13:17:59;1.88;;;1.60;;
41609;SDS011;27312;42.662;23.302;2022-07-10T13:20:25;2.88;;;1.40;;
41609;SDS011;27312;42.662;23.302;2022-07-10T13:22:51;3.60;;;2.58;;
41609;SDS011;27312;42.662;23.302;2022-07-10T13:25:17;3.83;;;2.97;;
41609;SDS011;27312;42.662;23.302;2022-07-10T13:27:43;2.38;;;1.88;;
41609;SDS011;27312;42.662;23.302;2022-07-10T13:30:13;3.10;;;1.70;;
41609;SDS011;27312;42.662;23.302;2022-07-10T13:32:39;2.00;;;1.58;;
41609;SDS011;27312;42.662;23.302;2022-07-10T13:35:05;1.92;;;1.70;;
41609;SDS011;27312;42.662;23.302;2022-07-10T13:37:32;2.72;;;2.22;;
41609;SDS011;27312;42.662;23.302;2022-07-10T13:39:58;1.40;;;1.30;;
41609;SDS011;27312;42.662;23.302;2022-07-10T13:42:24;7.25;;;3.47;;
41609;SDS011;27312;42.662;23.302;2022-07-10T13:44:50;5.63;;;3.25;;
41609;SDS011;27312;42.662;23.302;2022-07-10T13:47:16;3.50;;;2.65;;
41609;SDS011;27312;42.662;23.302;2022-07-10T13:49:42;2.92;;;1.67;;
41609;SDS011;27312;42.662;23.302;2022-07-10T13:52:08;1.98;;;1.70;;
41609;SDS011;27312;42.662;23.302;2022-07-10T13:54:34;2.03;;;1.75;;
41609;SDS011;27312;42.662;23.302;2022-07-10T13:57:00;2.38;;;1.50;;
41609;SDS011;27312;42.662;23.302;2022-07-10T13:59:26;2.70;;;1.90;;
41609;SDS011;27312;42.662;23.302;2022-07-10T14:01:52;1.67;;;1.58;;
41609;SDS011;27312;42.662;23.302;2022-07-10T14:04:19;3.40;;;2.28;;
41609;SDS011;27312;42.662;23.302;2022-07-10T14:06:47;4.10;;;2.50;;
41609;SDS011;27312;42.662;23.302;2022-07-10T14:09:13;3.13;;;2.08;;
41609;SDS011;27312;42.662;23.302;2022-07-10T14:11:39;2.55;;;1.98;;
41609;SDS011;27312;42.662;23.302;2022-07-10T14:14:09;2.33;;;1.92;;
41609;SDS011;27312;42.662;23.302;2022-07-10T14:16:36;1.83;;;1.65;;
41609;SDS011;27312;42.662;23.302;2022-07-10T14:19:02;1.52;;;1.42;;
41609;SDS011;27312;42.662;23.302;2022-07-10T14:21:28;2.40;;;2.05;;
41609;SDS011;27312;42.662;23.302;2022-07-10T14:23:54;2.20;;;1.83;;
41609;SDS011;27312;42.662;23.302;2022-07-10T14:26:23;2.65;;;1.90;;
41609;SDS011;27312;42.662;23.302;2022-07-10T14:28:49;4.18;;;1.67;;
41609;SDS011;27312;42.662;23.302;2022-07-10T14:31:16;3.97;;;2.10;;
41609;SDS011;27312;42.662;23.302;2022-07-10T14:33:43;2.95;;;1.60;;
41609;SDS011;27312;42.662;23.302;2022-07-10T14:36:09;2.72;;;2.05;;
41609;SDS011;27312;42.662;23.302;2022-07-10T14:38:35;3.30;;;2.20;;
41609;SDS011;27312;42.662;23.302;2022-07-10T14:41:01;3.50;;;2.10;;
41609;SDS011;27312;42.662;23.302;2022-07-10T14:43:29;2.88;;;1.55;;
41609;SDS011;27312;42.662;23.302;2022-07-10T14:45:58;2.70;;;1.83;;
41609;SDS011;27312;42.662;23.302;2022-07-10T14:48:25;2.67;;;2.03;;
41609;SDS011;27312;42.662;23.302;2022-07-10T14:50:51;7.50;;;2.33;;
41609;SDS011;27312;42.662;23.302;2022-07-10T14:53:17;5.75;;;2.15;;
41609;SDS011;27312;42.662;23.302;2022-07-10T14:55:43;2.97;;;2.35;;
41609;SDS011;27312;42.662;23.302;2022-07-10T14:58:09;4.70;;;1.90;;